Time;durP1;ratioP1;P1;durP2;ratioP2;P2;SDS_P1;SDS_P2;PMS_P1;PMS_P2;Temp;Humidity;BMP_temperature;BMP_pressure;BME280_temperature;BME280_humidity;BME280_pressure;Samples;Min_cycle;Max_cycle;Signal;HPM_P1;HPM_P2
2022/12/24 00:02:05;;;;;;;6.60;1.90;;;;;;;19.68;45.65;100654.34;16133280;19;129459;-58
2022/12/24 00:07:28;;;;;;;4.82;1.45;;;;;;;19.67;45.62;100657.38;16132534;19;129412;-57
2022/12/24 00:12:50;;;;;;;8.88;1.80;;;;;;;19.63;46.06;100657.06;16132241;19;129282;-57
2022/12/24 00:18:12;;;;;;;6.25;1.45;;;;;;;19.61;45.98;100666.75;16132413;19;130650;-58
2022/12/24 00:23:34;;;;;;;7.82;1.67;;;;;;;19.58;46.06;100664.50;16132691;19;131650;-56
2022/12/24 00:28:55;;;;;;;9.07;1.50;;;;;;;19.55;45.73;100671.41;16133815;19;129679;-56
2022/12/24 00:34:17;;;;;;;9.45;1.88;;;;;;;19.55;46.00;100688.06;16132182;19;129791;-56
2022/12/24 00:39:39;;;;;;;9.75;2.05;;;;;;;19.52;45.79;100696.88;16131056;19;131785;-57
2022/12/24 00:45:01;;;;;;;8.32;1.80;;;;;;;19.49;45.53;100698.25;16132443;19;130004;-57
2022/12/24 00:50:23;;;;;;;6.47;1.63;;;;;;;19.48;45.46;100691.03;16130743;19;130592;-58
2022/12/24 00:55:44;;;;;;;5.47;1.33;;;;;;;19.45;45.41;100694.31;16133540;19;130635;-57
2022/12/24 01:01:06;;;;;;;7.32;1.75;;;;;;;19.45;45.54;100721.19;16132492;19;129277;-56
2022/12/24 01:06:28;;;;;;;5.47;1.65;;;;;;;19.42;45.45;100705.91;16131189;19;129595;-58
2022/12/24 01:11:50;;;;;;;6.63;1.58;;;;;;;19.42;45.55;100716.19;16131392;19;129706;-57
2022/12/24 01:17:12;;;;;;;5.78;1.42;;;;;;;19.41;45.41;100717.28;16130444;19;129592;-57
2022/12/24 01:22:34;;;;;;;8.30;1.80;;;;;;;19.37;45.37;100722.50;16130259;19;130404;-57
2022/12/24 01:27:56;;;;;;;6.88;2.13;;;;;;;19.35;45.34;100728.28;16131080;19;129977;-58
2022/12/24 01:33:18;;;;;;;6.20;1.60;;;;;;;19.34;45.46;100742.44;16128213;19;129720;-55
2022/12/24 01:38:40;;;;;;;5.95;1.38;;;;;;;19.33;45.56;100755.44;16129903;19;134998;-58
2022/12/24 01:44:30;;;;;;;7.05;1.38;;;;;;;19.33;45.18;100754.59;16129712;19;129089;-57
2022/12/24 01:50:00;;;;;;;7.55;1.80;;;;;;;19.28;45.24;100758.16;16127388;19;129303;-57
2022/12/24 01:55:24;;;;;;;8.07;1.65;;;;;;;19.26;45.17;100757.56;16126853;19;129292;-59
2022/12/24 02:00:45;;;;;;;7.60;1.88;;;;;;;19.25;45.58;100764.19;16129224;19;130591;-57
2022/12/24 02:06:10;;;;;;;7.25;1.90;;;;;;;19.24;45.35;100765.28;16129316;19;130366;-57
2022/12/24 02:11:35;;;;;;;6.17;1.63;;;;;;;19.21;45.17;100771.34;16128564;19;131169;-58
2022/12/24 02:17:25;;;;;;;4.57;1.40;;;;;;;19.21;45.35;100774.13;16126158;19;129484;-56
2022/12/24 02:23:05;;;;;;;7.80;1.80;;;;;;;19.19;45.05;100787.38;16126021;19;129734;-57
2022/12/24 02:28:57;;;;;;;4.38;1.55;;;;;;;19.19;45.22;100781.84;16122361;19;129279;-57
2022/12/24 02:34:26;;;;;;;7.90;1.52;;;;;;;19.16;45.09;100797.03;16124395;19;129845;-57
2022/12/24 02:39:54;;;;;;;4.68;1.35;;;;;;;19.15;45.30;100813.94;16124927;19;129198;-57
2022/12/24 02:45:21;;;;;;;5.03;1.58;;;;;;;19.13;45.04;100799.47;16124981;19;129825;-55
2022/12/24 02:51:05;;;;;;;4.93;1.52;;;;;;;19.14;45.38;100801.16;16124615;19;129464;-58
2022/12/24 02:56:34;;;;;;;5.55;1.27;;;;;;;19.12;45.31;100822.75;16124131;19;130094;-56
2022/12/24 03:02:08;;;;;;;6.85;1.27;;;;;;;19.10;45.33;100830.47;16123326;19;129527;-57
2022/12/24 03:07:59;;;;;;;5.57;1.25;;;;;;;19.08;44.90;100806.59;16124446;19;129725;-57
2022/12/24 03:13:22;;;;;;;6.20;1.52;;;;;;;19.06;45.10;100825.47;16122689;19;129184;-55
2022/12/24 03:18:46;;;;;;;6.35;1.73;;;;;;;19.06;44.99;100836.56;16122465;19;129937;-56
2022/12/24 03:24:10;;;;;;;5.07;1.30;;;;;;;19.05;45.09;100837.63;16123299;19;129958;-58
2022/12/24 03:29:32;;;;;;;5.50;1.20;;;;;;;19.05;45.14;100834.00;16122514;19;130007;-57
2022/12/24 03:34:55;;;;;;;7.20;1.40;;;;;;;19.02;45.31;100846.44;16122149;19;129608;-57
2022/12/24 03:40:16;;;;;;;7.47;1.63;;;;;;;19.01;45.28;100847.53;16122261;19;129543;-57
2022/12/24 03:45:38;;;;;;;5.28;1.27;;;;;;;19.00;44.82;100837.53;16122295;19;130097;-57
2022/12/24 03:51:01;;;;;;;5.72;1.23;;;;;;;19.00;45.22;100850.56;16115610;19;130003;-57
2022/12/24 03:56:23;;;;;;;5.05;1.40;;;;;;;18.97;44.82;100846.34;16118971;19;130166;-57
2022/12/24 04:01:45;;;;;;;4.40;1.25;;;;;;;18.95;44.99;100861.56;16116609;19;129873;-57
2022/12/24 04:07:07;;;;;;;7.88;1.20;;;;;;;18.94;44.95;100863.50;16117395;19;129888;-57
2022/12/24 04:12:29;;;;;;;5.10;1.20;;;;;;;18.94;45.09;100866.28;16125524;19;130785;-57
2022/12/24 04:17:51;;;;;;;3.90;1.20;;;;;;;18.92;45.00;100862.91;16133148;19;129480;-56
2022/12/24 04:23:12;;;;;;;6.10;1.30;;;;;;;18.91;45.05;100875.09;16132782;19;130006;-57
2022/12/24 04:28:35;;;;;;;4.55;1.08;;;;;;;18.91;44.83;100875.09;16134994;19;133299;-57
2022/12/24 04:33:57;;;;;;;5.90;1.25;;;;;;;18.90;44.61;100876.19;16133247;19;129894;-57
2022/12/24 04:39:19;;;;;;;2.55;0.98;;;;;;;18.87;44.90;100874.75;16132043;19;130653;-56
2022/12/24 04:44:40;;;;;;;4.22;1.38;;;;;;;18.86;44.90;100897.16;16132565;19;129572;-57
2022/12/24 04:50:03;;;;;;;3.50;0.88;;;;;;;18.85;45.05;100890.78;16129579;19;128922;-57
2022/12/24 04:55:24;;;;;;;3.63;0.95;;;;;;;18.87;44.95;100891.38;16131569;19;131121;-57
2022/12/24 05:00:46;;;;;;;4.72;1.30;;;;;;;18.85;44.75;100889.94;16131534;19;129625;-56
2022/12/24 05:06:12;;;;;;;4.72;1.25;;;;;;;18.85;44.63;100901.00;16130652;19;129856;-55
2022/12/24 05:11:33;;;;;;;2.65;1.00;;;;;;;18.82;44.92;100901.53;16134024;19;130021;-58
2022/12/24 05:16:55;;;;;;;5.68;1.50;;;;;;;18.82;44.87;100913.44;16132569;19;130854;-55
2022/12/24 05:27:57;;;;;;;4.20;1.48;;;;;;;18.77;44.55;100916.97;16132422;19;130043;-58
2022/12/24 05:33:19;;;;;;;3.55;0.88;;;;;;;18.77;44.62;100913.34;16130181;19;130236;-58
2022/12/24 05:38:41;;;;;;;3.55;1.00;;;;;;;18.76;44.64;100914.47;16131600;19;129714;-57
2022/12/24 05:44:03;;;;;;;5.35;1.02;;;;;;;18.75;44.76;100918.31;16130180;19;129948;-57
2022/12/24 05:49:24;;;;;;;5.15;1.00;;;;;;;18.74;44.38;100928.53;16131313;19;130659;-57
2022/12/24 05:54:46;;;;;;;2.97;1.20;;;;;;;18.74;44.51;100934.09;16129616;19;129043;-57
2022/12/24 06:00:09;;;;;;;3.53;1.30;;;;;;;18.73;44.62;100940.72;16127615;19;128970;-57
2022/12/24 06:05:31;;;;;;;3.90;1.20;;;;;;;18.72;44.70;100954.81;16130178;19;129418;-57
2022/12/24 06:11:00;;;;;;;3.42;1.05;;;;;;;18.71;44.49;100953.97;16128619;19;129181;-57
2022/12/24 06:16:23;;;;;;;2.75;0.93;;;;;;;18.68;44.46;100951.72;16126433;19;130332;-57
2022/12/24 06:21:45;;;;;;;5.72;1.30;;;;;;;18.68;44.67;100953.63;16127235;19;129397;-58
2022/12/24 06:27:07;;;;;;;5.70;1.27;;;;;;;18.67;44.45;100963.03;16128128;19;129766;-56
2022/12/24 06:32:29;;;;;;;4.07;0.93;;;;;;;18.65;44.71;100968.81;16124112;19;129888;-56
2022/12/24 06:37:51;;;;;;;5.32;1.20;;;;;;;18.68;44.51;100967.47;16126393;19;129609;-57
2022/12/24 06:43:14;;;;;;;4.63;1.00;;;;;;;18.81;44.51;100961.66;16125339;19;130579;-57
2022/12/24 06:48:35;;;;;;;3.67;0.95;;;;;;;19.12;44.00;100976.13;16125585;19;130593;-57
2022/12/24 06:53:57;;;;;;;2.95;1.08;;;;;;;19.55;43.86;100978.56;16125109;19;129704;-57
2022/12/24 06:59:19;;;;;;;2.78;0.90;;;;;;;19.95;43.36;100983.94;16124065;19;130047;-56
2022/12/24 07:04:41;;;;;;;3.22;1.00;;;;;;;20.23;42.82;100989.66;16123305;19;129860;-57
2022/12/24 07:10:04;;;;;;;5.05;1.13;;;;;;;20.39;42.86;100997.09;16124066;19;129579;-57
2022/12/24 07:15:25;;;;;;;5.03;1.20;;;;;;;20.41;42.70;100992.13;16121411;19;130503;-57
2022/12/24 07:20:47;;;;;;;1.73;0.75;;;;;;;20.41;42.21;101006.00;16123051;19;129313;-57
2022/12/24 07:26:09;;;;;;;3.75;1.42;;;;;;;20.35;42.66;101008.97;16120936;19;129125;-57
2022/12/24 07:31:31;;;;;;;3.75;1.10;;;;;;;20.26;42.31;101022.47;16118578;19;129216;-57
2022/12/24 07:36:53;;;;;;;5.18;1.40;;;;;;;20.14;42.58;101023.41;16121404;19;130425;-57
2022/12/24 07:42:15;;;;;;;5.72;1.25;;;;;;;20.04;42.48;101033.53;16119150;19;130180;-56
2022/12/24 07:47:37;;;;;;;5.70;1.40;;;;;;;19.96;43.09;101038.38;16132607;19;129498;-56
2022/12/24 07:52:58;;;;;;;5.45;1.70;;;;;;;19.88;42.91;101051.84;16136507;19;130375;-52
2022/12/24 07:58:21;;;;;;;5.65;1.35;;;;;;;19.78;42.85;101041.41;16135288;19;130581;-54
2022/12/24 08:03:43;;;;;;;8.13;1.33;;;;;;;19.66;43.11;101039.53;16137070;19;129896;-55
2022/12/24 08:09:06;;;;;;;9.88;1.55;;;;;;;19.59;43.23;101061.06;16135280;19;130516;-50
2022/12/24 08:14:28;;;;;;;11.05;2.13;;;;;;;19.56;42.98;101053.25;16134630;19;130001;-56
2022/12/24 08:19:50;;;;;;;8.27;1.95;;;;;;;19.59;43.17;101058.28;16135559;19;129097;-56
2022/12/24 08:25:12;;;;;;;7.63;1.65;;;;;;;19.68;42.95;101059.56;16132089;19;129748;-54
2022/12/24 08:30:34;;;;;;;11.90;2.20;;;;;;;19.76;42.85;101083.28;16134926;19;129715;-52
2022/12/24 08:35:56;;;;;;;11.52;2.85;;;;;;;19.82;42.67;101092.53;16136619;19;129747;-50
2022/12/24 08:41:17;;;;;;;24.85;3.17;;;;;;;19.87;42.36;101100.97;16134369;19;129683;-57
2022/12/24 08:46:39;;;;;;;24.25;3.15;;;;;;;19.83;42.38;101099.78;16136390;19;129029;-52
2022/12/24 08:52:01;;;;;;;15.88;2.97;;;;;;;19.88;41.97;101101.81;16137961;19;129045;-58
2022/12/24 08:57:23;;;;;;;34.00;3.78;;;;;;;20.03;41.40;101120.72;16134357;19;129799;-50
2022/12/24 09:02:44;;;;;;;36.75;3.50;;;;;;;20.34;40.69;101137.88;16174593;19;129219;-56
2022/12/24 09:08:06;;;;;;;27.02;4.00;;;;;;;20.65;40.65;101143.94;16213520;19;129236;-57
2022/12/24 09:13:28;;;;;;;20.90;3.00;;;;;;;20.92;40.17;101132.94;16213413;19;128994;-54
2022/12/24 09:18:49;;;;;;;16.55;3.03;;;;;;;21.14;39.99;101152.44;16215467;19;129834;-56
2022/12/24 09:24:11;;;;;;;19.67;2.65;;;;;;;21.33;39.82;101146.53;16213889;19;129594;-55
2022/12/24 09:29:33;;;;;;;11.95;2.10;;;;;;;21.45;39.77;101147.25;16215261;19;129315;-56
2022/12/24 09:34:54;;;;;;;15.73;2.60;;;;;;;21.56;39.34;101164.09;16212978;19;133849;-57
2022/12/24 09:40:28;;;;;;;13.07;2.08;;;;;;;21.67;39.21;101171.47;16216172;19;129775;-56
2022/12/24 09:46:13;;;;;;;13.73;2.22;;;;;;;21.67;39.60;101182.59;16210373;19;129718;-57
2022/12/24 09:51:46;;;;;;;8.70;2.42;;;;;;;21.57;39.40;101188.06;16213116;19;130202;-57
2022/12/24 09:57:18;;;;;;;16.67;2.85;;;;;;;21.46;39.68;101201.81;16212081;19;129377;-55
2022/12/24 10:02:40;;;;;;;47.63;4.38;;;;;;;21.31;40.18;101204.41;16211245;19;129110;-57
2022/12/24 10:08:31;;;;;;;42.60;3.83;;;;;;;21.19;40.21;101213.69;16186219;19;129763;-57
2022/12/24 10:14:02;;;;;;;25.67;3.65;;;;;;;21.04;40.59;101207.94;16208109;19;129233;-57
2022/12/24 10:19:48;;;;;;;29.08;3.50;;;;;;;20.92;41.14;101196.91;16209484;19;128705;-49
2022/12/24 10:25:41;;;;;;;26.88;3.00;;;;;;;20.79;41.52;101206.47;16210752;19;129614;-57
2022/12/24 10:31:06;;;;;;;24.13;2.67;;;;;;;20.67;41.74;101208.47;16209224;19;129001;-57
2022/12/24 10:36:30;;;;;;;16.93;3.10;;;;;;;20.58;41.65;101217.22;16208756;19;128854;-58
2022/12/24 10:41:56;;;;;;;19.88;2.38;;;;;;;20.52;41.92;101207.13;16208650;19;129225;-57
2022/12/24 10:47:20;;;;;;;12.68;2.40;;;;;;;20.45;41.67;101217.53;16207856;19;129442;-58
2022/12/24 10:52:44;;;;;;;18.50;2.53;;;;;;;20.42;41.70;101209.72;16204620;19;128327;-58
2022/12/24 10:58:14;;;;;;;15.60;2.55;;;;;;;20.40;42.07;101223.03;16205448;19;129256;-58
2022/12/24 11:03:41;;;;;;;14.65;2.47;;;;;;;20.37;42.14;101226.31;16207839;19;129155;-58
2022/12/24 11:09:30;;;;;;;13.50;2.92;;;;;;;20.38;42.10;101226.03;16205409;19;131140;-58
2022/12/24 11:15:05;;;;;;;17.95;2.28;;;;;;;20.38;42.09;101222.44;16201606;19;129857;-58
2022/12/24 11:20:28;;;;;;;14.18;2.53;;;;;;;20.35;41.94;101223.78;16129210;19;129470;-58
2022/12/24 11:25:51;;;;;;;21.15;2.20;;;;;;;20.32;42.04;101231.75;16143735;19;129529;-58
2022/12/24 11:31:26;;;;;;;13.60;2.47;;;;;;;20.27;42.25;101238.91;16139797;19;129518;-58
2022/12/24 11:36:50;;;;;;;10.65;2.00;;;;;;;20.21;42.31;101233.53;16137359;19;129857;-59
2022/12/24 11:42:41;;;;;;;14.60;2.35;;;;;;;20.17;42.50;101238.75;16137277;19;130466;-59
2022/12/24 11:48:30;;;;;;;11.63;2.50;;;;;;;20.12;42.60;101236.69;16137276;19;129366;-60
2022/12/24 11:54:01;;;;;;;9.68;2.22;;;;;;;20.10;42.49;101244.44;16138599;19;129947;-60
2022/12/24 11:59:34;;;;;;;13.55;2.55;;;;;;;20.11;42.92;101245.28;16139174;19;129509;-60
2022/12/24 12:04:59;;;;;;;14.35;2.88;;;;;;;20.16;42.89;101256.50;16139235;19;129910;-60
2022/12/24 12:10:24;;;;;;;7.30;2.07;;;;;;;20.31;42.53;101260.66;16138988;19;130234;-59
2022/12/24 12:15:45;;;;;;;9.80;2.00;;;;;;;20.42;42.65;101251.41;16137569;19;129820;-59
2022/12/24 12:21:23;;;;;;;8.32;1.80;;;;;;;20.56;42.18;101263.88;16138350;19;129351;-59
2022/12/24 12:26:46;;;;;;;9.13;1.90;;;;;;;20.65;42.29;101264.31;16138022;19;129005;-59
2022/12/24 12:32:24;;;;;;;10.18;1.77;;;;;;;20.74;41.82;101261.94;16136268;19;129483;-59
2022/12/24 12:38:23;;;;;;;6.30;1.60;;;;;;;20.80;41.70;101274.84;16136097;19;129505;-59
2022/12/24 12:43:48;;;;;;;8.25;1.80;;;;;;;20.85;41.88;101272.16;16136882;19;129263;-59
2022/12/24 12:49:18;;;;;;;9.30;1.70;;;;;;;20.88;41.60;101265.25;16140582;19;129325;-59
2022/12/24 12:54:59;;;;;;;7.05;1.83;;;;;;;20.90;41.53;101257.50;16142071;19;129474;-60
2022/12/24 13:00:21;;;;;;;4.75;1.60;;;;;;;20.92;41.92;101260.88;16137653;19;129397;-60
2022/12/24 13:06:07;;;;;;;7.65;1.40;;;;;;;20.96;41.82;101256.50;16136919;19;130060;-61
2022/12/24 13:11:37;;;;;;;8.07;2.07;;;;;;;20.96;41.76;101250.94;16136189;19;129828;-61
2022/12/24 13:17:18;;;;;;;14.98;2.28;;;;;;;21.02;41.99;101262.97;16136355;19;129576;-60
2022/12/24 13:22:48;;;;;;;11.68;2.33;;;;;;;20.99;41.96;101272.66;16137457;19;129520;-61
2022/12/24 13:28:32;;;;;;;11.10;2.05;;;;;;;20.92;41.75;101271.19;16139096;19;129506;-60
2022/12/24 13:33:57;;;;;;;15.27;2.22;;;;;;;20.84;41.90;101275.22;16135696;19;129267;-60
2022/12/24 13:39:19;;;;;;;11.73;2.30;;;;;;;20.75;41.77;101260.84;16137735;19;129616;-61
2022/12/24 13:44:41;;;;;;;17.83;3.00;;;;;;;20.74;42.22;101273.06;16133471;19;129528;-61
2022/12/24 13:50:20;;;;;;;15.30;2.40;;;;;;;20.78;42.22;101274.28;16132481;19;130675;-60
2022/12/24 13:55:53;;;;;;;11.70;3.25;;;;;;;20.85;41.69;101277.72;16144134;19;129888;-59
2022/12/24 14:01:19;;;;;;;14.30;2.78;;;;;;;20.89;42.00;101281.69;16134414;19;134794;-61
2022/12/24 14:06:41;;;;;;;23.75;3.88;;;;;;;20.95;41.49;101299.31;16118029;19;130198;-61
2022/12/24 14:12:03;;;;;;;21.13;4.00;;;;;;;21.01;41.45;101286.34;16123965;19;129527;-60
2022/12/24 14:17:28;;;;;;;14.05;3.17;;;;;;;21.14;41.33;101290.69;16127264;19;129435;-61
2022/12/24 14:22:50;;;;;;;19.15;3.17;;;;;;;21.22;41.25;101288.31;16130798;19;130690;-60
2022/12/24 14:28:20;;;;;;;13.75;2.75;;;;;;;21.37;40.85;101306.34;16129905;19;129629;-61
2022/12/24 14:33:43;;;;;;;18.30;3.10;;;;;;;21.50;40.88;101317.16;16128279;19;129018;-59
2022/12/24 14:39:10;;;;;;;13.20;2.70;;;;;;;21.63;40.61;101315.09;16130378;19;130742;-62
2022/12/24 14:45:16;;;;;;;12.13;2.80;;;;;;;21.72;40.25;101312.72;16129813;19;129571;-61
2022/12/24 14:50:43;;;;;;;20.58;3.20;;;;;;;21.71;40.30;101317.44;16128201;19;131302;-60
2022/12/24 14:56:13;;;;;;;32.53;4.25;;;;;;;21.70;39.89;101326.88;16131599;19;129524;-60
2022/12/24 15:01:35;;;;;;;27.35;3.25;;;;;;;21.68;40.46;101343.00;16128873;19;132128;-61
2022/12/24 15:06:58;;;;;;;24.17;3.63;;;;;;;21.65;40.19;101346.31;16130105;19;129497;-60
2022/12/24 15:12:22;;;;;;;17.80;3.70;;;;;;;21.59;40.28;101344.53;16131215;19;133742;-60
2022/12/24 15:17:44;;;;;;;16.45;2.65;;;;;;;21.50;40.56;101345.00;16129494;19;129403;-60
2022/12/24 15:23:18;;;;;;;12.23;2.75;;;;;;;21.42;40.78;101350.94;16124488;19;129860;-64
2022/12/24 15:28:40;;;;;;;16.70;2.70;;;;;;;21.33;40.98;101349.69;16129066;19;133099;-60
2022/12/24 15:34:01;;;;;;;13.25;2.10;;;;;;;21.18;41.06;101353.91;16125194;19;130625;-61
2022/12/24 15:39:23;;;;;;;12.75;2.25;;;;;;;21.08;40.71;101356.53;16125849;19;129425;-61
2022/12/24 15:45:07;;;;;;;16.42;3.40;;;;;;;21.01;41.31;101350.31;16125451;19;130176;-61
2022/12/24 15:50:30;;;;;;;20.35;2.55;;;;;;;20.94;41.54;101355.19;16124005;19;129416;-60
2022/12/24 15:56:08;;;;;;;12.98;2.17;;;;;;;20.89;41.49;101345.66;16125501;19;129782;-60
2022/12/24 16:01:30;;;;;;;13.45;2.70;;;;;;;20.84;41.86;101356.69;16129961;19;130040;-60
2022/12/24 16:07:03;;;;;;;22.70;2.70;;;;;;;20.82;41.82;101349.69;16133118;19;129222;-61
2022/12/24 16:12:25;;;;;;;20.25;2.33;;;;;;;20.76;42.00;101357.13;16138020;19;130296;-60
2022/12/24 16:17:48;;;;;;;23.13;2.17;;;;;;;20.69;42.17;101357.22;16138356;19;129781;-60
2022/12/24 16:23:17;;;;;;;11.25;1.85;;;;;;;20.66;42.67;101363.28;16141175;19;129656;-60
2022/12/24 16:28:39;;;;;;;10.63;2.13;;;;;;;20.68;42.77;101369.44;16139285;19;129469;-60
2022/12/24 16:34:01;;;;;;;18.88;2.35;;;;;;;20.74;42.37;101370.38;16137490;19;129830;-60
2022/12/24 16:39:33;;;;;;;28.60;2.15;;;;;;;20.82;42.50;101364.44;16134821;19;129544;-60
2022/12/24 16:44:55;;;;;;;29.33;2.88;;;;;;;20.83;42.36;101362.50;16135375;19;130582;-60
2022/12/24 16:50:17;;;;;;;32.80;2.67;;;;;;;20.84;42.16;101359.47;16133501;19;129565;-60
2022/12/24 16:55:39;;;;;;;16.35;2.22;;;;;;;20.84;41.80;101347.53;16136599;19;128934;-61
2022/12/24 17:01:07;;;;;;;18.05;2.22;;;;;;;20.86;41.45;101345.34;16133560;19;129365;-61
2022/12/24 17:06:30;;;;;;;13.32;2.40;;;;;;;20.84;41.59;101353.91;16135349;19;130611;-62
2022/12/24 17:11:52;;;;;;;16.63;2.80;;;;;;;20.85;41.31;101352.81;16132536;19;128970;-61
2022/12/24 17:17:26;;;;;;;11.65;2.75;;;;;;;20.86;41.26;101357.28;16130530;19;130077;-61
2022/12/24 17:22:48;;;;;;;10.82;2.65;;;;;;;20.85;41.04;101375.06;16131222;19;130814;-60
2022/12/24 17:28:09;;;;;;;17.52;3.55;;;;;;;20.84;40.85;101373.38;16130795;19;129822;-60
2022/12/24 17:33:31;;;;;;;9.60;2.97;;;;;;;20.84;40.84;101365.03;16131293;19;129492;-60
2022/12/24 17:38:53;;;;;;;12.00;2.92;;;;;;;20.85;40.83;101358.38;16131921;19;129731;-60
2022/12/24 17:44:15;;;;;;;11.77;3.08;;;;;;;20.86;40.29;101350.91;16131426;19;132970;-60
2022/12/24 17:49:37;;;;;;;10.40;3.08;;;;;;;20.86;40.41;101346.16;16133269;19;129476;-59
2022/12/24 17:54:58;;;;;;;14.40;4.55;;;;;;;20.88;40.33;101340.34;16133068;19;130361;-60
2022/12/24 18:00:20;;;;;;;16.85;6.07;;;;;;;20.86;40.66;101340.59;16129947;19;129871;-59
2022/12/24 18:05:42;;;;;;;15.68;7.63;;;;;;;20.82;40.49;101353.31;16130036;19;130500;-60
2022/12/24 18:11:25;;;;;;;19.27;8.70;;;;;;;20.76;40.45;101351.56;16129256;19;130053;-59
2022/12/24 18:16:48;;;;;;;23.77;13.35;;;;;;;20.66;40.67;101362.47;16128120;19;129037;-59
2022/12/24 18:22:10;;;;;;;24.15;13.25;;;;;;;20.57;40.70;101357.28;16127550;19;129421;-61
2022/12/24 18:27:34;;;;;;;27.92;15.50;;;;;;;20.49;41.17;101356.88;16131891;19;129609;-58
2022/12/24 18:32:55;;;;;;;27.60;17.50;;;;;;;20.42;41.04;101351.44;16126528;19;130265;-61
2022/12/24 18:38:21;;;;;;;28.70;17.43;;;;;;;20.35;41.21;101350.75;16127067;19;134591;-61
2022/12/24 18:43:43;;;;;;;31.17;17.70;;;;;;;20.29;41.04;101350.66;16131573;19;129815;-60
2022/12/24 18:49:05;;;;;;;29.60;17.58;;;;;;;20.25;41.29;101363.34;16128451;19;129556;-60
2022/12/24 18:54:27;;;;;;;29.58;16.90;;;;;;;20.23;41.33;101359.97;16126935;19;129549;-60
2022/12/24 18:59:49;;;;;;;30.80;17.75;;;;;;;20.21;41.04;101373.25;16128804;19;129436;-60
2022/12/24 19:05:13;;;;;;;28.08;17.13;;;;;;;20.23;41.38;101364.69;16125152;19;129276;-61
2022/12/24 19:10:36;;;;;;;26.80;17.43;;;;;;;20.31;41.13;101364.28;16127477;19;130885;-60
2022/12/24 19:15:58;;;;;;;25.20;16.30;;;;;;;20.59;40.98;101369.00;16125420;19;129335;-61
2022/12/24 19:21:20;;;;;;;25.80;15.32;;;;;;;20.94;40.78;101374.66;16125075;19;130757;-60
2022/12/24 19:26:42;;;;;;;25.17;15.23;;;;;;;21.26;40.08;101371.31;16123627;19;129634;-61
2022/12/24 19:32:04;;;;;;;22.73;14.10;;;;;;;21.51;39.99;101374.53;16123389;19;128893;-61
2022/12/24 19:37:26;;;;;;;21.88;12.85;;;;;;;21.74;39.52;101378.19;16122831;19;129826;-61
2022/12/24 19:42:50;;;;;;;18.92;11.95;;;;;;;21.90;39.21;101381.19;16130342;19;129049;-61
2022/12/24 19:48:12;;;;;;;17.92;11.63;;;;;;;22.00;39.23;101372.97;16139783;19;129771;-61
2022/12/24 19:53:35;;;;;;;19.23;11.73;;;;;;;22.01;39.04;101368.22;16137305;19;129589;-62
2022/12/24 19:58:57;;;;;;;38.97;21.15;;;;;;;21.85;38.42;101387.50;16135792;19;130537;-60
2022/12/24 20:04:20;;;;;;;37.20;21.40;;;;;;;21.65;38.18;101368.59;16135202;19;130123;-58
2022/12/24 20:09:42;;;;;;;38.60;20.60;;;;;;;21.54;38.50;101377.91;16136418;19;129427;-58
2022/12/24 20:15:04;;;;;;;33.60;17.42;;;;;;;21.41;38.87;101385.47;16137706;19;129702;-58
2022/12/24 20:20:26;;;;;;;47.58;17.63;;;;;;;21.30;39.05;101389.16;16133495;19;130357;-59
2022/12/24 20:25:57;;;;;;;50.55;16.67;;;;;;;21.21;39.37;101389.59;16136974;19;129031;-59
2022/12/24 20:31:25;;;;;;;47.03;14.18;;;;;;;21.14;39.88;101394.50;16137388;19;129740;-60
2022/12/24 20:36:47;;;;;;;34.28;13.20;;;;;;;21.06;40.63;101381.84;16134393;19;129568;-60
2022/12/24 20:42:10;;;;;;;32.70;12.05;;;;;;;21.03;40.33;101379.56;16128684;19;129980;-58
2022/12/24 20:47:32;;;;;;;36.08;10.00;;;;;;;20.98;40.95;101382.25;16134508;19;128915;-57
2022/12/24 20:52:54;;;;;;;36.85;10.23;;;;;;;20.90;41.21;101366.81;16134471;19;130715;-60
2022/12/24 20:58:17;;;;;;;24.77;9.13;;;;;;;20.89;41.15;101373.47;16136039;19;129581;-60
2022/12/24 21:03:38;;;;;;;27.92;9.50;;;;;;;20.88;40.90;101391.25;16137225;19;129791;-59
2022/12/24 21:09:01;;;;;;;25.30;8.70;;;;;;;20.84;41.45;101384.50;16135918;19;130236;-58
2022/12/24 21:14:26;;;;;;;24.60;8.20;;;;;;;20.82;41.67;101394.19;16131192;19;130041;-60
2022/12/24 21:19:47;;;;;;;18.23;7.13;;;;;;;20.78;41.45;101379.97;16133611;19;129967;-60
2022/12/24 21:25:10;;;;;;;22.13;7.10;;;;;;;20.74;41.78;101373.16;16132520;19;129145;-60
2022/12/24 21:30:32;;;;;;;15.73;5.47;;;;;;;20.71;41.84;101365.31;16132961;19;130200;-58
2022/12/24 21:35:58;;;;;;;23.90;6.63;;;;;;;20.70;41.99;101358.06;16133239;19;129787;-59
2022/12/24 21:41:24;;;;;;;23.30;6.55;;;;;;;20.68;42.05;101332.44;16132946;19;130249;-59
2022/12/24 21:46:46;;;;;;;17.17;4.97;;;;;;;20.64;41.80;101325.72;16136262;19;131202;-60
2022/12/24 21:52:08;;;;;;;14.10;4.43;;;;;;;20.59;41.88;101324.53;16128802;19;129046;-60
2022/12/24 22:03:12;;;;;;;15.23;4.38;;;;;;;20.49;41.87;101321.56;16125554;19;129577;-59
2022/12/24 22:14:15;;;;;;;10.20;3.63;;;;;;;20.40;42.37;101325.84;16128756;19;129018;-59
2022/12/24 22:19:37;;;;;;;8.55;3.53;;;;;;;20.36;42.07;101336.63;16127305;19;129628;-60
2022/12/24 22:24:58;;;;;;;9.95;3.42;;;;;;;20.34;42.36;101335.16;16128282;19;130217;-59
2022/12/24 22:30:20;;;;;;;13.23;3.50;;;;;;;20.31;42.29;101316.22;16126215;19;130689;-59
2022/12/24 22:35:42;;;;;;;13.48;2.80;;;;;;;20.25;42.28;101318.91;16125913;19;129208;-59
2022/12/24 22:41:08;;;;;;;13.80;3.15;;;;;;;20.20;42.09;101316.00;16125899;19;129695;-59
2022/12/24 22:46:29;;;;;;;12.65;2.53;;;;;;;20.15;42.11;101318.69;16123173;19;129361;-60
2022/12/24 22:51:51;;;;;;;9.80;2.42;;;;;;;20.11;41.90;101328.59;16123475;19;129686;-59
2022/12/24 22:57:13;;;;;;;6.93;2.33;;;;;;;20.07;42.26;101338.50;16122817;19;129509;-60
2022/12/24 23:02:34;;;;;;;9.32;2.40;;;;;;;20.03;42.27;101342.88;16124609;19;130768;-60
2022/12/24 23:07:56;;;;;;;7.53;1.95;;;;;;;19.98;42.23;101347.19;16124158;19;129610;-59
2022/12/24 23:19:02;;;;;;;6.93;1.83;;;;;;;19.90;42.04;101357.84;16126020;19;129457;-60
2022/12/24 23:24:23;;;;;;;4.47;1.70;;;;;;;19.87;42.15;101361.97;16125462;19;130030;-59
2022/12/24 23:29:45;;;;;;;6.63;1.90;;;;;;;19.84;41.86;101348.56;16124255;19;130272;-59
2022/12/24 23:35:07;;;;;;;4.25;1.52;;;;;;;19.82;42.09;101354.38;16122454;19;129583;-59
2022/12/24 23:40:29;;;;;;;4.95;1.40;;;;;;;19.78;42.29;101353.16;16121684;19;129708;-60
2022/12/24 23:45:52;;;;;;;9.18;1.65;;;;;;;19.77;42.27;101348.69;16124607;19;129552;-59
2022/12/24 23:51:17;;;;;;;4.82;1.40;;;;;;;19.75;41.93;101339.78;16122704;19;129422;-59
2022/12/24 23:56:39;;;;;;;5.00;1.50;;;;;;;19.72;42.25;101339.41;16125633;19;129577;-59
